createdAt,value
2019-01-09T00:00:43.144Z,6.30
2019-01-09T00:03:09.591Z,6.20
2019-01-09T00:05:36.082Z,6.30
2019-01-09T00:08:02.735Z,6.20
2019-01-09T00:10:29.421Z,6.10
2019-01-09T00:12:56.078Z,5.90
2019-01-09T00:15:22.566Z,5.80
2019-01-09T00:17:49.020Z,5.60
2019-01-09T00:20:15.700Z,5.70
2019-01-09T00:22:42.356Z,5.80
2019-01-09T00:25:08.942Z,5.90
2019-01-09T00:27:35.495Z,5.70
2019-01-09T00:30:04.585Z,5.80
2019-01-09T00:32:31.034Z,5.60
2019-01-09T00:34:57.676Z,5.60
2019-01-09T00:37:24.365Z,5.60
2019-01-09T00:39:51.093Z,5.70
2019-01-09T00:42:17.760Z,5.90
2019-01-09T00:44:44.414Z,5.80
2019-01-09T00:47:11.381Z,5.60
2019-01-09T00:49:38.023Z,5.50
2019-01-09T00:52:04.605Z,5.60
2019-01-09T00:54:31.412Z,5.60
2019-01-09T00:56:57.778Z,5.60
2019-01-09T00:59:25.734Z,5.60
2019-01-09T01:01:56.028Z,5.60
2019-01-09T01:04:38.218Z,5.60
2019-01-09T01:07:26.702Z,5.60
2019-01-09T01:10:31.586Z,5.40
2019-01-09T01:13:04.476Z,5.40
2019-01-09T01:15:46.813Z,5.40
2019-01-09T01:18:32.248Z,5.40
2019-01-09T01:21:02.397Z,5.40
2019-01-09T01:23:35.526Z,5.60
2019-01-09T01:26:11.626Z,5.60
2019-01-09T01:28:53.967Z,5.60
2019-01-09T01:31:39.060Z,5.60
2019-01-09T01:34:36.256Z,5.40
2019-01-09T01:37:23.256Z,5.30
2019-01-09T01:40:10.143Z,5.40
2019-01-09T01:42:55.326Z,5.40
2019-01-09T01:45:25.576Z,5.40
2019-01-09T01:48:26.082Z,5.40
2019-01-09T01:50:56.356Z,5.50
2019-01-09T01:53:29.476Z,5.80
2019-01-09T01:56:03.869Z,5.70
2019-01-09T01:58:34.120Z,5.60
2019-01-09T02:01:30.211Z,5.30
2019-01-09T02:04:06.604Z,5.30
2019-01-09T02:06:45.974Z,5.30
2019-01-09T02:09:28.069Z,5.40
2019-01-09T02:11:58.347Z,5.40
2019-01-09T02:14:31.552Z,5.50
2019-01-09T02:17:04.868Z,5.90
2019-01-09T02:19:41.345Z,5.70
2019-01-09T02:22:23.512Z,5.80
2019-01-09T02:24:56.775Z,5.40
2019-01-09T02:27:30.117Z,5.60
2019-01-09T02:30:11.972Z,5.60
2019-01-09T02:32:38.364Z,5.70
2019-01-09T02:35:04.819Z,5.50
2019-01-09T02:37:31.611Z,5.60
2019-01-09T02:39:58.206Z,5.60
2019-01-09T02:42:24.645Z,5.60
2019-01-09T02:44:51.231Z,5.50
2019-01-09T02:47:18.076Z,5.80
2019-01-09T02:49:44.904Z,5.80
2019-01-09T02:52:11.478Z,5.60
2019-01-09T02:54:38.136Z,5.80
2019-01-09T02:57:04.608Z,5.60
2019-01-09T02:59:31.051Z,5.60
2019-01-09T03:01:57.627Z,5.60
2019-01-09T03:04:24.080Z,5.70
2019-01-09T03:06:50.561Z,5.80
2019-01-09T03:09:17.374Z,5.50
2019-01-09T03:11:43.947Z,5.50
2019-01-09T03:14:10.492Z,5.60
2019-01-09T03:16:37.078Z,5.40
2019-01-09T03:19:03.633Z,5.40
2019-01-09T03:21:30.208Z,5.40
2019-01-09T03:23:56.656Z,5.50
2019-01-09T03:26:23.341Z,5.20
2019-01-09T03:28:49.896Z,5.30
2019-01-09T03:31:16.473Z,5.10
2019-01-09T03:33:43.108Z,5.00
2019-01-09T03:36:09.691Z,5.30
2019-01-09T03:38:36.351Z,5.20
2019-01-09T03:41:02.823Z,5.00
2019-01-09T03:43:29.372Z,5.30
2019-01-09T03:45:55.938Z,5.30
2019-01-09T03:48:22.326Z,5.30
2019-01-09T03:50:48.795Z,5.30
2019-01-09T03:53:15.156Z,5.40
2019-01-09T03:55:42.014Z,5.40
2019-01-09T03:58:08.569Z,5.40
2019-01-09T04:00:35.253Z,5.40
2019-01-09T04:03:01.697Z,5.40
2019-01-09T04:05:28.095Z,5.30
2019-01-09T04:07:54.740Z,5.50
2019-01-09T04:10:21.135Z,5.20
2019-01-09T04:12:47.588Z,5.20
2019-01-09T04:15:14.058Z,5.20
2019-01-09T04:17:40.504Z,5.20
2019-01-09T04:20:07.060Z,5.00
2019-01-09T04:22:33.526Z,5.20
2019-01-09T04:25:00.170Z,5.00
2019-01-09T04:27:26.745Z,5.00
2019-01-09T04:29:53.101Z,4.70
2019-01-09T04:32:19.577Z,4.80
2019-01-09T04:34:46.016Z,4.80
2019-01-09T04:37:12.497Z,4.90
2019-01-09T04:39:38.952Z,4.70
2019-01-09T04:42:05.825Z,4.80
2019-01-09T04:44:32.574Z,4.80
2019-01-09T04:46:59.059Z,4.80
2019-01-09T04:49:25.825Z,5.00
2019-01-09T04:51:52.497Z,4.90
2019-01-09T04:54:18.978Z,5.30
2019-01-09T04:56:45.682Z,5.00
2019-01-09T04:59:12.144Z,5.10
2019-01-09T05:01:38.601Z,5.10
2019-01-09T05:04:05.067Z,5.10
2019-01-09T05:06:31.626Z,5.00
2019-01-09T05:08:58.194Z,5.10
2019-01-09T05:11:24.652Z,5.00
2019-01-09T05:13:51.379Z,4.80
2019-01-09T05:16:17.944Z,4.80
2019-01-09T05:18:44.404Z,4.80
2019-01-09T05:21:10.872Z,4.80
2019-01-09T05:23:37.231Z,4.80
2019-01-09T05:26:04.077Z,4.90
2019-01-09T05:28:30.717Z,4.80
2019-01-09T05:30:57.340Z,4.90
2019-01-09T05:33:23.896Z,4.70
2019-01-09T05:35:50.367Z,5.00
2019-01-09T05:38:16.819Z,4.80
2019-01-09T05:40:43.372Z,4.50
2019-01-09T05:43:09.944Z,4.90
2019-01-09T05:45:36.295Z,4.70
2019-01-09T05:48:02.893Z,4.80
2019-01-09T05:50:29.345Z,4.70
2019-01-09T05:52:55.835Z,4.90
2019-01-09T05:55:22.532Z,4.80
2019-01-09T05:57:48.997Z,4.80
2019-01-09T06:00:15.720Z,4.80
2019-01-09T06:02:42.288Z,4.70
2019-01-09T06:05:08.827Z,4.90
2019-01-09T06:07:35.274Z,4.70
2019-01-09T06:10:02.064Z,4.70
2019-01-09T06:12:28.527Z,4.70
2019-01-09T06:14:55.111Z,4.40
2019-01-09T06:17:21.667Z,4.50
2019-01-09T06:19:48.145Z,4.50
2019-01-09T06:22:14.698Z,4.70
2019-01-09T06:24:41.393Z,4.70
2019-01-09T06:27:07.836Z,4.40
2019-01-09T06:29:34.248Z,4.50
2019-01-09T06:32:00.829Z,4.60
2019-01-09T06:34:27.276Z,4.70
2019-01-09T06:36:54.032Z,4.60
2019-01-09T06:39:20.385Z,4.50
2019-01-09T06:41:46.856Z,4.20
2019-01-09T06:44:13.317Z,4.50
2019-01-09T06:46:39.900Z,4.40
2019-01-09T06:49:06.852Z,4.70
2019-01-09T06:51:33.705Z,4.50
2019-01-09T06:54:00.164Z,4.80
2019-01-09T06:56:26.732Z,4.50
2019-01-09T06:58:53.176Z,4.40
2019-01-09T07:01:19.567Z,4.60
2019-01-09T07:03:46.016Z,4.80
2019-01-09T07:06:12.486Z,4.90
2019-01-09T07:08:38.958Z,4.50
2019-01-09T07:11:05.609Z,4.50
2019-01-09T07:13:32.083Z,4.40
2019-01-09T07:15:58.434Z,4.60
2019-01-09T07:18:24.799Z,4.50
2019-01-09T07:20:51.355Z,4.70
2019-01-09T07:23:17.843Z,4.40
2019-01-09T07:25:44.280Z,4.60
2019-01-09T07:28:11.040Z,4.60
2019-01-09T07:30:37.598Z,4.50
2019-01-09T07:33:04.153Z,4.40
2019-01-09T07:35:30.628Z,4.50
2019-01-09T07:37:57.076Z,4.70
2019-01-09T07:40:23.757Z,4.20
2019-01-09T07:42:50.577Z,4.30
2019-01-09T07:45:17.153Z,4.30
2019-01-09T07:47:43.620Z,4.50
2019-01-09T07:50:10.091Z,4.10
2019-01-09T07:52:36.448Z,4.30
2019-01-09T07:55:03.918Z,4.20
2019-01-09T07:57:30.667Z,4.50
2019-01-09T07:59:57.409Z,4.20
2019-01-09T08:02:24.160Z,4.50
2019-01-09T08:04:50.722Z,4.70
2019-01-09T08:07:17.200Z,4.60
2019-01-09T08:09:43.669Z,4.60
2019-01-09T08:12:10.227Z,4.60
2019-01-09T08:14:36.582Z,4.50
2019-01-09T08:17:03.159Z,4.40
2019-01-09T08:19:29.883Z,4.60
2019-01-09T08:21:56.359Z,4.60
2019-01-09T08:24:23.227Z,4.50
2019-01-09T08:26:49.695Z,4.50
2019-01-09T08:29:16.148Z,4.70
2019-01-09T08:31:42.724Z,4.70
2019-01-09T08:34:09.275Z,4.90
2019-01-09T08:36:35.960Z,4.70
2019-01-09T08:39:04.207Z,4.80
2019-01-09T08:41:31.315Z,5.00
2019-01-09T08:43:57.701Z,5.00
2019-01-09T08:46:24.256Z,5.10
2019-01-09T08:48:50.843Z,5.10
2019-01-09T08:51:17.197Z,5.20
2019-01-09T08:53:43.667Z,5.30
2019-01-09T08:56:10.122Z,5.30
2019-01-09T08:58:36.610Z,5.40
2019-01-09T09:01:03.438Z,5.60
2019-01-09T09:03:29.887Z,5.30
2019-01-09T09:05:56.453Z,5.30
2019-01-09T09:08:23.506Z,5.30
2019-01-09T09:10:50.164Z,5.70
2019-01-09T09:13:31.704Z,6.20
2019-01-09T09:15:58.176Z,6.80
2019-01-09T09:18:24.619Z,7.10
2019-01-09T09:20:51.198Z,6.80
2019-01-09T09:23:17.644Z,7.80
2019-01-09T09:25:44.121Z,8.10
2019-01-09T09:28:10.581Z,8.50
2019-01-09T09:30:37.331Z,9.30
2019-01-09T09:33:04.043Z,9.70
2019-01-09T09:35:30.431Z,10.70
2019-01-09T09:37:56.917Z,11.00
2019-01-09T09:40:23.588Z,11.00
2019-01-09T09:42:50.053Z,11.10
2019-01-09T09:45:16.492Z,11.50
2019-01-09T09:47:43.082Z,12.10
2019-01-09T09:50:12.547Z,12.00
2019-01-09T09:52:39.132Z,11.40
2019-01-09T09:55:12.788Z,10.60
2019-01-09T09:57:34.456Z,9.80
2019-01-09T10:00:01.065Z,9.40
2019-01-09T10:02:27.632Z,10.00
2019-01-09T10:04:53.985Z,10.20
2019-01-09T10:07:20.548Z,10.30
2019-01-09T10:09:47.119Z,9.60
2019-01-09T10:12:13.683Z,8.30
2019-01-09T10:14:40.437Z,8.90
2019-01-09T10:17:06.987Z,9.40
2019-01-09T10:19:33.368Z,9.70
2019-01-09T10:22:00.092Z,11.10
2019-01-09T10:24:26.697Z,12.00
2019-01-09T10:26:54.202Z,12.10
2019-01-09T10:29:20.995Z,11.50
2019-01-09T10:31:47.385Z,10.20
2019-01-09T10:34:14.208Z,10.00
2019-01-09T10:36:40.679Z,9.00
2019-01-09T10:39:07.233Z,8.40
2019-01-09T10:41:33.980Z,8.10
2019-01-09T10:44:00.432Z,7.50
2019-01-09T10:46:27.024Z,7.50
2019-01-09T10:48:53.484Z,7.30
2019-01-09T10:51:19.968Z,8.00
2019-01-09T10:53:46.525Z,9.60
2019-01-09T10:56:12.990Z,9.60
2019-01-09T10:58:39.460Z,10.60
2019-01-09T11:01:06.003Z,10.90
2019-01-09T11:03:32.389Z,10.70
2019-01-09T11:05:58.835Z,9.90
2019-01-09T11:08:25.323Z,9.10
2019-01-09T11:10:51.859Z,8.70
2019-01-09T11:13:18.339Z,8.20
2019-01-09T11:15:44.800Z,7.60
2019-01-09T11:18:11.628Z,8.10
2019-01-09T11:20:38.093Z,8.00
2019-01-09T11:23:04.570Z,7.80
2019-01-09T11:25:31.018Z,8.40
2019-01-09T11:27:57.575Z,9.80
2019-01-09T11:30:24.228Z,10.00
2019-01-09T11:32:50.783Z,9.80
2019-01-09T11:35:19.951Z,10.10
2019-01-09T11:37:46.499Z,9.70
2019-01-09T11:40:15.390Z,9.90
2019-01-09T11:42:41.940Z,9.40
2019-01-09T11:45:11.731Z,9.20
2019-01-09T11:47:38.562Z,8.90
2019-01-09T11:50:07.556Z,8.90
2019-01-09T11:52:34.195Z,8.80
2019-01-09T11:55:01.122Z,9.30
2019-01-09T11:57:27.591Z,9.80
2019-01-09T11:59:53.970Z,9.70
2019-01-09T12:02:22.318Z,9.70
2019-01-09T12:04:48.981Z,9.40
2019-01-09T12:07:15.548Z,9.50
2019-01-09T12:09:42.019Z,10.70
2019-01-09T12:12:08.502Z,12.50
2019-01-09T12:14:34.939Z,12.60
2019-01-09T12:17:01.419Z,12.50
2019-01-09T12:19:27.875Z,11.80
2019-01-09T12:21:54.338Z,11.00
2019-01-09T12:24:20.878Z,10.20
2019-01-09T12:26:47.633Z,9.60
2019-01-09T12:29:14.175Z,9.70
2019-01-09T12:31:40.864Z,10.50
2019-01-09T12:34:07.320Z,10.50
2019-01-09T12:36:33.972Z,10.10
2019-01-09T12:39:00.462Z,10.20
2019-01-09T12:41:26.995Z,10.20
2019-01-09T12:43:53.370Z,10.00
2019-01-09T12:46:19.818Z,9.20
2019-01-09T12:48:46.317Z,9.80
2019-01-09T12:51:12.864Z,9.70
2019-01-09T12:53:39.344Z,10.50
2019-01-09T12:56:07.692Z,10.30
2019-01-09T12:58:34.161Z,9.40
2019-01-09T13:01:00.623Z,9.30
2019-01-09T13:03:27.427Z,8.70
2019-01-09T13:05:53.776Z,8.90
2019-01-09T13:08:20.370Z,9.70
2019-01-09T13:10:46.841Z,10.50
2019-01-09T13:13:13.376Z,10.20
2019-01-09T13:15:39.776Z,9.80
2019-01-09T13:18:06.324Z,9.30
2019-01-09T13:20:32.800Z,9.50
2019-01-09T13:22:59.244Z,9.40
2019-01-09T13:25:25.739Z,9.00
2019-01-09T13:27:52.183Z,8.70
2019-01-09T13:30:20.068Z,8.20
2019-01-09T13:32:46.740Z,8.10
2019-01-09T13:35:13.203Z,7.80
2019-01-09T13:37:39.648Z,8.10
2019-01-09T13:40:11.966Z,7.70
2019-01-09T13:42:38.696Z,7.50
2019-01-09T13:45:08.064Z,7.50
2019-01-09T13:47:34.660Z,7.40
2019-01-09T13:50:01.218Z,7.50
2019-01-09T13:52:27.703Z,8.10
2019-01-09T13:54:54.153Z,8.10
2019-01-09T13:57:21.435Z,8.10
2019-01-09T13:59:47.897Z,8.00
2019-01-09T14:02:14.598Z,7.60
2019-01-09T14:04:41.041Z,7.70
2019-01-09T14:07:07.520Z,7.40
2019-01-09T14:09:39.368Z,7.10
2019-01-09T14:12:02.724Z,7.40
2019-01-09T14:14:29.105Z,7.20
2019-01-09T14:16:55.545Z,7.20
2019-01-09T14:19:22.116Z,7.50
2019-01-09T14:21:48.668Z,7.80
2019-01-09T14:24:15.233Z,7.20
2019-01-09T14:26:41.688Z,7.30
2019-01-09T14:29:08.640Z,7.40
2019-01-09T14:31:35.096Z,7.40
2019-01-09T14:34:01.582Z,7.40
2019-01-09T14:36:28.131Z,7.80
2019-01-09T14:38:54.809Z,7.20
2019-01-09T14:41:21.365Z,7.30
2019-01-09T14:43:48.026Z,7.20
2019-01-09T14:46:14.699Z,7.10
2019-01-09T14:48:41.096Z,7.20
2019-01-09T14:51:07.678Z,7.30
2019-01-09T14:53:34.384Z,7.40
2019-01-09T14:56:01.152Z,7.50
2019-01-09T14:58:27.600Z,7.70
2019-01-09T15:00:54.183Z,7.30
2019-01-09T15:03:20.630Z,7.20
2019-01-09T15:05:47.231Z,7.40
2019-01-09T15:08:13.665Z,7.10
2019-01-09T15:10:40.245Z,7.30
2019-01-09T15:13:06.893Z,7.40
2019-01-09T15:15:33.375Z,7.40
2019-01-09T15:17:59.855Z,7.00
2019-01-09T15:20:26.507Z,7.10
2019-01-09T15:22:53.432Z,6.90
2019-01-09T15:25:19.985Z,6.50
2019-01-09T15:27:46.751Z,6.60
2019-01-09T15:30:16.004Z,6.70
2019-01-09T15:32:43.054Z,6.80
2019-01-09T15:35:10.315Z,6.50
2019-01-09T15:37:36.696Z,6.70
2019-01-09T15:40:12.551Z,6.40
2019-01-09T15:42:39.392Z,6.40
2019-01-09T15:45:08.556Z,6.50
2019-01-09T15:47:35.134Z,6.50
2019-01-09T15:50:03.100Z,6.20
2019-01-09T15:52:29.800Z,6.30
2019-01-09T15:54:56.476Z,6.40
2019-01-09T15:57:23.396Z,6.20
2019-01-09T15:59:50.160Z,6.10
2019-01-09T16:02:16.603Z,6.00
2019-01-09T16:04:43.081Z,5.90
2019-01-09T16:07:09.639Z,6.10
2019-01-09T16:09:36.117Z,5.90
2019-01-09T16:12:02.753Z,6.10
2019-01-09T16:14:29.241Z,6.10
2019-01-09T16:16:55.689Z,6.20
2019-01-09T16:19:22.147Z,6.20
2019-01-09T16:21:48.599Z,5.80
2019-01-09T16:24:15.156Z,6.10
2019-01-09T16:26:41.829Z,6.00
2019-01-09T16:29:08.302Z,6.00
2019-01-09T16:31:35.004Z,6.00
2019-01-09T16:34:01.656Z,5.80
2019-01-09T16:36:28.483Z,6.00
2019-01-09T16:38:55.131Z,5.80
2019-01-09T16:41:21.708Z,5.90
2019-01-09T16:43:48.252Z,5.90
2019-01-09T16:46:15.016Z,5.70
2019-01-09T16:48:41.492Z,5.90
2019-01-09T16:51:08.049Z,5.80
2019-01-09T16:53:34.617Z,5.80
2019-01-09T16:56:01.173Z,6.20
2019-01-09T16:58:27.752Z,6.20
2019-01-09T17:00:54.395Z,6.10
2019-01-09T17:03:21.184Z,5.60
2019-01-09T17:05:47.944Z,5.80
2019-01-09T17:08:14.710Z,5.90
2019-01-09T17:10:41.174Z,5.60
2019-01-09T17:13:07.751Z,5.60
2019-01-09T17:15:34.421Z,5.80
2019-01-09T17:18:01.324Z,5.60
2019-01-09T17:20:30.342Z,5.70
2019-01-09T17:22:56.904Z,5.60
2019-01-09T17:25:23.653Z,5.50
2019-01-09T17:27:50.203Z,5.90
2019-01-09T17:30:24.936Z,5.70
2019-01-09T17:32:51.792Z,5.60
2019-01-09T17:35:18.459Z,5.60
2019-01-09T17:37:45.112Z,5.70
2019-01-09T17:40:17.553Z,5.60
2019-01-09T17:42:44.298Z,5.90
2019-01-09T17:45:11.066Z,5.60
2019-01-09T17:47:37.557Z,5.70
2019-01-09T17:50:11.040Z,5.50
2019-01-09T17:52:37.492Z,5.70
2019-01-09T17:55:07.851Z,5.60
2019-01-09T17:57:34.318Z,5.30
2019-01-09T18:00:00.999Z,5.60
2019-01-09T18:02:27.465Z,5.70
2019-01-09T18:04:53.920Z,5.70
2019-01-09T18:07:20.395Z,5.40
2019-01-09T18:09:47.153Z,5.30
2019-01-09T18:12:13.841Z,5.40
2019-01-09T18:14:40.769Z,5.30
2019-01-09T18:17:07.488Z,5.50
2019-01-09T18:19:33.930Z,5.30
2019-01-09T18:22:00.500Z,5.60
2019-01-09T18:24:27.015Z,5.40
2019-01-09T18:26:53.852Z,5.10
2019-01-09T18:29:20.404Z,5.00
2019-01-09T18:31:53.628Z,5.00
2019-01-09T18:34:20.182Z,5.30
2019-01-09T18:36:53.302Z,5.00
2019-01-09T18:39:29.403Z,5.20
2019-01-09T18:42:14.914Z,4.80
2019-01-09T18:44:47.923Z,4.80
2019-01-09T18:47:18.214Z,4.80
2019-01-09T18:50:06.137Z,4.80
2019-01-09T18:52:45.430Z,4.80
2019-01-09T18:55:12.271Z,4.90
2019-01-09T18:57:38.960Z,4.70
2019-01-09T19:00:12.355Z,4.80
2019-01-09T19:02:39.040Z,4.80
2019-01-09T19:05:05.896Z,4.70
2019-01-09T19:07:32.544Z,4.80
2019-01-09T19:09:59.376Z,5.00
2019-01-09T19:12:25.924Z,4.80
2019-01-09T19:14:52.492Z,5.20
2019-01-09T19:17:19.057Z,5.00
2019-01-09T19:19:45.524Z,5.00
2019-01-09T19:22:12.075Z,5.00
2019-01-09T19:24:38.936Z,5.10
2019-01-09T19:27:05.592Z,5.10
2019-01-09T19:29:32.036Z,5.10
2019-01-09T19:31:58.721Z,5.10
2019-01-09T19:34:25.270Z,5.00
2019-01-09T19:36:51.748Z,4.90
2019-01-09T19:39:18.201Z,5.20
2019-01-09T19:41:44.717Z,5.10
2019-01-09T19:44:11.527Z,4.90
2019-01-09T19:46:38.067Z,5.00
2019-01-09T19:49:05.822Z,5.20
2019-01-09T19:51:32.396Z,5.00
2019-01-09T19:54:02.956Z,5.00
2019-01-09T19:56:29.607Z,4.90
2019-01-09T19:58:56.199Z,5.20
2019-01-09T20:01:22.852Z,4.80
2019-01-09T20:03:49.620Z,4.70
2019-01-09T20:06:16.288Z,4.90
2019-01-09T20:08:42.763Z,4.80
2019-01-09T20:11:09.521Z,4.90
2019-01-09T20:13:35.996Z,4.80
2019-01-09T20:16:03.047Z,5.00
2019-01-09T20:18:29.771Z,4.50
2019-01-09T20:20:56.461Z,4.90
2019-01-09T20:23:22.973Z,4.70
2019-01-09T20:25:49.631Z,4.50
2019-01-09T20:28:16.356Z,4.50
2019-01-09T20:30:43.184Z,4.50
2019-01-09T20:33:10.038Z,4.70
2019-01-09T20:35:36.716Z,4.50
2019-01-09T20:38:03.551Z,4.70
2019-01-09T20:40:30.121Z,4.50
2019-01-09T20:42:56.533Z,4.50
2019-01-09T20:45:23.343Z,4.30
2019-01-09T20:47:50.283Z,4.30
2019-01-09T20:50:22.238Z,4.40
2019-01-09T20:52:49.030Z,4.20
2019-01-09T20:55:15.773Z,4.30
2019-01-09T20:57:42.660Z,4.10
2019-01-09T21:00:18.368Z,3.90
2019-01-09T21:02:44.952Z,4.10
2019-01-09T21:05:18.178Z,4.20
2019-01-09T21:07:44.611Z,4.20
2019-01-09T21:10:13.844Z,4.30
2019-01-09T21:12:40.444Z,4.70
2019-01-09T21:15:10.380Z,4.70
2019-01-09T21:17:37.137Z,4.60
2019-01-09T21:20:07.624Z,4.50
2019-01-09T21:22:34.372Z,4.50
2019-01-09T21:25:00.932Z,4.50
2019-01-09T21:27:27.284Z,4.40
2019-01-09T21:29:53.883Z,4.40
2019-01-09T21:32:20.428Z,4.70
2019-01-09T21:34:46.896Z,4.70
2019-01-09T21:37:13.540Z,4.70
2019-01-09T21:39:40.100Z,4.50
2019-01-09T21:42:06.635Z,4.50
2019-01-09T21:44:33.006Z,4.60
2019-01-09T21:46:59.573Z,4.90
2019-01-09T21:49:26.025Z,4.70
2019-01-09T21:51:52.593Z,4.60
2019-01-09T21:54:19.520Z,4.70
2019-01-09T21:56:45.883Z,4.50
2019-01-09T21:59:12.327Z,4.40
2019-01-09T22:01:38.904Z,4.60
2019-01-09T22:04:05.358Z,4.70
2019-01-09T22:06:31.918Z,4.70
2019-01-09T22:08:58.267Z,4.90
2019-01-09T22:11:24.717Z,4.40
2019-01-09T22:13:51.192Z,4.60
2019-01-09T22:16:17.650Z,5.00
2019-01-09T22:18:44.476Z,4.50
2019-01-09T22:21:11.024Z,4.60
2019-01-09T22:23:37.579Z,4.70
2019-01-09T22:26:04.017Z,4.40
2019-01-09T22:28:30.479Z,4.70
2019-01-09T22:30:57.029Z,4.70
2019-01-09T22:33:23.617Z,4.80
2019-01-09T22:35:50.048Z,4.90
2019-01-09T22:38:16.416Z,4.80
2019-01-09T22:40:42.866Z,4.60
2019-01-09T22:43:09.457Z,4.60
2019-01-09T22:45:36.139Z,4.80
2019-01-09T22:48:02.884Z,4.90
2019-01-09T22:50:29.455Z,4.80
2019-01-09T22:52:56.169Z,4.70
2019-01-09T22:55:22.838Z,4.70
2019-01-09T22:57:49.380Z,4.70
2019-01-09T23:00:47.238Z,4.80
2019-01-09T23:03:13.968Z,4.70
2019-01-09T23:05:40.873Z,4.70
2019-01-09T23:08:07.282Z,4.90
2019-01-09T23:10:33.829Z,4.70
2019-01-09T23:13:00.391Z,4.90
2019-01-09T23:15:27.045Z,4.90
2019-01-09T23:17:54.132Z,4.80
2019-01-09T23:20:20.774Z,4.30
2019-01-09T23:22:47.360Z,4.60
2019-01-09T23:25:14.168Z,4.50
2019-01-09T23:27:41.013Z,4.60
2019-01-09T23:30:11.609Z,4.40
2019-01-09T23:32:38.348Z,4.50
2019-01-09T23:35:08.078Z,4.40
2019-01-09T23:37:34.633Z,4.50
2019-01-09T23:40:01.801Z,4.40
2019-01-09T23:42:30.588Z,4.50
2019-01-09T23:44:56.724Z,4.50
2019-01-09T23:47:23.201Z,4.60
2019-01-09T23:49:50.368Z,4.50
2019-01-09T23:52:16.812Z,4.70
2019-01-09T23:54:43.188Z,4.50
2019-01-09T23:57:09.731Z,4.40
2019-01-09T23:59:36.213Z,4.40
